Time;durP1;ratioP1;P1;durP2;ratioP2;P2;SDS_P1;SDS_P2;PMS_P1;PMS_P2;Temp;Humidity;BMP_temperature;BMP_pressure;BME280_temperature;BME280_humidity;BME280_pressure;Samples;Min_cycle;Max_cycle;Signal;HPM_P1;HPM_P2
2022/02/07 00:01:01;;;;;;;2.42;0.63;;;;;;;4.40;82.24;98876.38;1085618;54;20114;-80
2022/02/07 00:02:06;;;;;;;2.92;0.55;;;;;;;4.34;82.49;98883.91;1085863;54;20945;-80
2022/02/07 00:03:25;;;;;;;1.60;0.57;;;;;;;4.36;82.41;98879.31;1085770;54;20045;-78
2022/02/07 00:04:32;;;;;;;2.47;0.70;;;;;;;4.48;82.21;98864.16;1085690;54;20039;-79
2022/02/07 00:05:36;;;;;;;2.85;0.60;;;;;;;4.37;82.24;98869.56;1085790;54;20043;-79
2022/02/07 00:06:41;;;;;;;2.15;0.57;;;;;;;4.37;82.31;98878.34;1085411;54;20061;-78
2022/02/07 00:07:42;;;;;;;2.28;0.60;;;;;;;4.45;82.49;98885.59;1085456;54;20046;-79
2022/02/07 00:08:50;;;;;;;3.08;0.55;;;;;;;4.56;82.05;98882.03;1085756;54;20038;-79
2022/02/07 00:09:52;;;;;;;3.50;0.60;;;;;;;4.63;81.84;98882.34;1085895;54;20042;-79
2022/02/07 00:10:56;;;;;;;2.22;0.63;;;;;;;4.59;82.04;98881.75;1085401;54;20038;-79
2022/02/07 00:11:57;;;;;;;2.83;0.57;;;;;;;4.58;81.79;98882.72;1085651;54;20038;-78
2022/02/07 00:13:02;;;;;;;1.90;0.50;;;;;;;4.58;81.68;98874.78;1085734;54;20045;-78
2022/02/07 00:14:06;;;;;;;2.00;0.57;;;;;;;4.70;81.54;98870.22;1085868;54;20042;-78
2022/02/07 00:15:08;;;;;;;2.67;0.68;;;;;;;4.67;81.07;98871.34;1085597;54;20134;-79
2022/02/07 00:16:12;;;;;;;2.20;0.52;;;;;;;4.63;80.64;98866.44;1085740;54;20038;-79
2022/02/07 00:17:14;;;;;;;4.68;0.80;;;;;;;4.66;80.80;98871.47;1085567;54;20061;-78
2022/02/07 00:18:18;;;;;;;2.38;0.60;;;;;;;4.63;80.48;98861.97;1085550;54;20042;-79
2022/02/07 00:19:24;;;;;;;2.28;0.60;;;;;;;4.73;80.56;98856.69;1085542;54;20057;-79
2022/02/07 00:20:28;;;;;;;1.42;0.40;;;;;;;4.76;80.27;98860.91;1086058;54;20611;-80
2022/02/07 00:21:29;;;;;;;1.92;0.50;;;;;;;4.87;80.01;98867.88;1085898;54;20050;-78
2022/02/07 00:22:33;;;;;;;1.60;0.50;;;;;;;4.71;80.19;98863.09;1086420;47;20027;-78
2022/02/07 00:23:38;;;;;;;2.85;0.50;;;;;;;4.74;80.11;98839.84;1085197;54;20050;-79
2022/02/07 00:24:42;;;;;;;1.63;0.50;;;;;;;4.82;80.10;98845.28;1086046;47;20077;-79
2022/02/07 00:25:46;;;;;;;2.42;0.63;;;;;;;4.69;80.12;98853.50;1085631;47;20034;-79
2022/02/07 00:26:48;;;;;;;1.92;0.50;;;;;;;4.74;80.03;98853.06;1085417;54;20061;-79
2022/02/07 00:27:52;;;;;;;2.42;0.60;;;;;;;4.65;80.58;98880.38;1085300;54;20038;-77
2022/02/07 00:28:54;;;;;;;1.55;0.40;;;;;;;4.60;80.44;98901.13;1085595;54;20061;-78
2022/02/07 00:29:58;;;;;;;3.10;0.85;;;;;;;4.77;80.17;98911.06;1086164;54;20571;-78
2022/02/07 00:31:03;;;;;;;2.15;0.73;;;;;;;4.83;80.09;98915.00;1087358;54;20035;-79
2022/02/07 00:32:05;;;;;;;1.58;0.45;;;;;;;4.91;79.54;98911.66;1087947;47;20038;-78
2022/02/07 00:33:10;;;;;;;3.15;0.68;;;;;;;4.86;79.60;98909.44;1087774;54;20585;-78
2022/02/07 00:34:11;;;;;;;2.30;0.50;;;;;;;4.75;79.39;98894.47;1087246;47;20026;-78
2022/02/07 00:35:18;;;;;;;2.72;0.50;;;;;;;4.76;79.70;98895.31;1085704;54;20045;-80
2022/02/07 00:36:23;;;;;;;1.83;0.50;;;;;;;4.88;79.27;98885.44;1085943;54;20038;-78
2022/02/07 00:37:27;;;;;;;1.20;0.40;;;;;;;4.91;79.20;98875.41;1085906;54;20042;-78
2022/02/07 00:38:31;;;;;;;1.48;0.50;;;;;;;4.78;79.28;98880.97;1086337;39;20456;-78
2022/02/07 00:39:42;;;;;;;2.40;0.50;;;;;;;4.82;79.41;98887.66;1085065;54;20053;-78
2022/02/07 00:41:00;;;;;;;3.65;1.23;;;;;;;4.73;79.13;98901.72;1085984;39;20834;-78
2022/02/07 00:42:07;;;;;;;1.50;0.50;;;;;;;4.74;79.10;98916.63;1085664;54;20073;-79
2022/02/07 00:43:26;;;;;;;3.35;0.50;;;;;;;4.91;78.79;98916.97;1085666;54;20042;-78
2022/02/07 00:44:32;;;;;;;1.00;0.40;;;;;;;5.01;78.52;98933.69;1085816;54;20038;-78
2022/02/07 00:45:51;;;;;;;2.65;0.60;;;;;;;5.05;78.27;98929.81;1085820;54;20038;-78
2022/02/07 00:46:58;;;;;;;2.08;0.40;;;;;;;5.11;78.14;98934.53;1086260;54;20049;-79
2022/02/07 00:48:00;;;;;;;0.90;0.30;;;;;;;5.15;77.98;98933.31;1086327;54;20094;-78
2022/02/07 00:49:07;;;;;;;0.82;0.40;;;;;;;5.08;77.99;98926.03;1086516;54;20031;-77
2022/02/07 00:50:08;;;;;;;2.15;0.50;;;;;;;5.03;78.00;98918.50;1087791;54;20038;-78
2022/02/07 00:51:12;;;;;;;1.23;0.50;;;;;;;4.90;77.98;98924.06;1087997;54;20027;-78
2022/02/07 00:52:14;;;;;;;2.33;0.45;;;;;;;4.95;78.01;98913.06;1087334;46;20042;-80
2022/02/07 00:53:18;;;;;;;2.10;0.60;;;;;;;4.99;77.93;98925.88;1086107;54;20098;-78
2022/02/07 00:54:23;;;;;;;2.88;0.77;;;;;;;5.03;77.78;98921.16;1086016;54;20130;-77
2022/02/07 00:55:24;;;;;;;1.95;0.60;;;;;;;5.13;77.57;98919.34;1085832;54;20065;-79
2022/02/07 00:56:31;;;;;;;1.48;0.50;;;;;;;5.04;77.74;98922.84;1085889;54;20097;-79
2022/02/07 00:57:33;;;;;;;1.52;0.47;;;;;;;5.08;77.70;98923.41;1086147;54;20050;-78
2022/02/07 00:58:37;;;;;;;1.30;0.50;;;;;;;5.13;77.53;98931.78;1086102;54;20038;-79
2022/02/07 00:59:41;;;;;;;1.52;0.57;;;;;;;5.13;77.68;98947.69;1086070;54;20042;-78
2022/02/07 01:00:43;;;;;;;2.53;0.60;;;;;;;5.17;77.37;98945.59;1086417;54;20043;-79
2022/02/07 01:01:47;;;;;;;1.15;0.40;;;;;;;5.23;77.46;98950.34;1086437;54;20137;-78
2022/02/07 01:02:49;;;;;;;1.70;0.50;;;;;;;5.22;77.31;98952.16;1087465;54;20038;-79
2022/02/07 01:03:53;;;;;;;1.75;0.40;;;;;;;5.21;77.41;98952.28;1087561;46;20057;-79
2022/02/07 01:04:54;;;;;;;4.22;0.93;;;;;;;5.09;77.19;98956.88;1086786;54;20031;-80
2022/02/07 01:05:58;;;;;;;1.50;0.50;;;;;;;5.12;77.36;98968.03;1088990;46;20508;-78
2022/02/07 01:07:02;;;;;;;2.00;0.60;;;;;;;5.12;77.07;98970.66;1086682;54;20034;-79
2022/02/07 01:08:07;;;;;;;1.85;0.50;;;;;;;5.01;77.19;98984.03;1086939;54;20034;-79
2022/02/07 01:09:18;;;;;;;1.08;0.40;;;;;;;5.13;77.15;98998.84;1086643;54;20050;-79
2022/02/07 01:10:26;;;;;;;0.75;0.32;;;;;;;5.14;76.89;98999.69;1086388;54;20065;-79
2022/02/07 01:11:48;;;;;;;2.03;0.60;;;;;;;4.97;77.04;99011.78;1085963;54;20899;-77
2022/02/07 01:13:05;;;;;;;1.98;0.52;;;;;;;4.99;77.01;99020.44;1085983;54;20639;-78
2022/02/07 01:14:16;;;;;;;2.20;0.60;;;;;;;4.94;77.06;99030.56;1086545;54;20643;-79
2022/02/07 01:15:26;;;;;;;1.33;0.40;;;;;;;4.94;76.92;99030.56;1086678;54;20061;-79
2022/02/07 01:17:03;;;;;;;1.35;0.47;;;;;;;4.83;76.92;99042.94;1086304;54;20069;-79
2022/02/07 01:21:13;;;;;;;1.63;0.50;;;;;;;4.79;76.88;99040.69;1085304;54;20038;-79
2022/02/07 01:45:52;;;;;;;1.85;0.43;;;;;;;4.86;76.29;99044.50;1085929;39;20563;-79
2022/02/07 01:46:31;;;;;;;1.98;0.47;;;;;;;4.86;71.48;99131.03;1085089;54;20042;-79
2022/02/07 01:47:49;;;;;;;1.60;0.50;;;;;;;4.90;71.32;99135.94;1085111;54;20635;-79
2022/02/07 01:53:06;;;;;;;3.00;0.73;;;;;;;4.83;71.70;99174.53;1085450;54;20043;-82
2022/02/07 01:54:20;;;;;;;1.48;0.50;;;;;;;4.79;71.24;99184.53;1086034;39;20619;-78
2022/02/07 01:55:33;;;;;;;1.83;0.50;;;;;;;4.81;71.09;99187.91;1087937;39;20507;-79
2022/02/07 01:56:35;;;;;;;3.88;0.70;;;;;;;4.88;70.99;99187.38;1085464;54;20647;-78
2022/02/07 01:57:46;;;;;;;4.05;0.63;;;;;;;4.85;70.50;99183.19;1085774;54;20034;-79
2022/02/07 01:58:50;;;;;;;;;;;;;;;4.71;69.65;99194.94;1085490;54;20956;-78
2022/02/07 01:59:52;;;;;;;2.85;0.60;;;;;;;4.81;68.97;99190.56;1085410;54;19958;-77
2022/02/07 02:00:56;;;;;;;3.60;0.73;;;;;;;4.76;68.41;99190.06;1085016;54;20061;-78
2022/02/07 02:01:58;;;;;;;2.25;0.50;;;;;;;4.76;68.76;99200.66;1085222;54;20054;-77
2022/02/07 02:03:03;;;;;;;2.30;0.60;;;;;;;4.77;68.50;99193.59;1085639;54;20035;-79
2022/02/07 02:04:05;;;;;;;2.35;0.65;;;;;;;4.77;68.48;99191.75;1086098;54;20081;-78
2022/02/07 02:05:10;;;;;;;2.33;0.60;;;;;;;4.77;68.63;99197.06;1085899;54;20030;-78
2022/02/07 02:06:13;;;;;;;3.80;0.65;;;;;;;4.79;68.54;99200.41;1086857;39;20437;-78
2022/02/07 02:07:18;;;;;;;3.28;1.02;;;;;;;4.74;68.62;99197.31;1086056;54;21069;-78
2022/02/07 02:08:20;;;;;;;1.73;0.52;;;;;;;4.74;68.56;99199.13;1086094;54;20042;-79
2022/02/07 02:09:26;;;;;;;3.28;0.60;;;;;;;4.72;68.58;99198.41;1087126;46;20572;-79
2022/02/07 02:10:27;;;;;;;3.03;0.70;;;;;;;4.75;68.80;99209.56;1085820;54;20042;-79
2022/02/07 02:11:34;;;;;;;3.55;0.68;;;;;;;4.76;68.70;99210.44;1086073;54;20038;-77
2022/02/07 02:12:43;;;;;;;3.13;0.70;;;;;;;4.73;69.04;99215.97;1086119;54;20042;-79
2022/02/07 02:14:09;;;;;;;3.28;0.80;;;;;;;4.67;69.17;99215.53;1086389;54;20114;-77
2022/02/07 02:15:24;;;;;;;2.45;0.70;;;;;;;4.66;68.70;99224.44;1086579;54;20106;-79
2022/02/07 02:16:34;;;;;;;2.42;0.90;;;;;;;4.65;68.71;99232.50;1086223;54;20046;-78
2022/02/07 02:18:09;;;;;;;3.70;0.63;;;;;;;4.59;69.32;99228.53;1085941;54;20030;-80
2022/02/07 02:19:47;;;;;;;2.58;0.50;;;;;;;4.57;68.95;99222.56;1085862;54;20034;-78
2022/02/07 02:22:43;;;;;;;2.55;0.50;;;;;;;4.58;69.20;99241.91;1086134;54;20034;-79
2022/02/07 02:33:31;;;;;;;2.58;0.65;;;;;;;4.57;69.39;99251.66;1085512;54;20115;-78
2022/02/07 02:36:16;;;;;;;1.48;0.50;;;;;;;4.52;69.54;99264.44;1086095;54;20044;-77
2022/02/07 02:37:28;;;;;;;4.82;0.77;;;;;;;4.46;69.36;99268.41;1086033;47;20027;-79
2022/02/07 02:38:45;;;;;;;5.45;0.90;;;;;;;4.46;69.54;99268.41;1086170;54;20042;-78
2022/02/07 02:46:27;;;;;;;3.40;0.75;;;;;;;4.46;68.79;99299.34;1085578;54;20038;-79
2022/02/07 02:47:30;;;;;;;4.55;0.80;;;;;;;4.40;68.45;99305.97;1085519;54;20091;-78
2022/02/07 02:48:40;;;;;;;5.20;0.82;;;;;;;4.35;68.48;99302.84;1086004;54;20151;-78
2022/02/07 02:49:47;;;;;;;3.35;0.57;;;;;;;4.40;68.56;99311.25;1087066;54;20058;-78
2022/02/07 02:50:54;;;;;;;3.33;0.73;;;;;;;4.38;68.73;99318.47;1087955;46;20030;-78
2022/02/07 02:51:55;;;;;;;4.30;0.95;;;;;;;4.43;68.72;99320.75;1088368;46;20042;-77
2022/02/07 02:53:04;;;;;;;4.30;1.10;;;;;;;4.43;68.59;99326.91;1086654;54;20038;-77
2022/02/07 02:54:06;;;;;;;4.45;0.75;;;;;;;4.37;68.66;99327.38;1085801;54;20034;-80
2022/02/07 02:55:12;;;;;;;4.22;0.70;;;;;;;4.40;68.77;99345.66;1085792;54;20038;-78
2022/02/07 02:56:16;;;;;;;7.03;0.98;;;;;;;4.39;68.83;99341.34;1085743;54;20065;-78
2022/02/07 02:57:18;;;;;;;3.67;1.00;;;;;;;4.36;68.98;99341.56;1085491;54;20069;-79
2022/02/07 02:58:24;;;;;;;5.65;0.80;;;;;;;4.33;68.91;99358.53;1085950;54;20038;-78
2022/02/07 02:59:36;;;;;;;4.40;1.00;;;;;;;4.32;68.70;99356.03;1085998;54;20062;-79
2022/02/07 03:00:41;;;;;;;4.30;0.85;;;;;;;4.35;68.40;99361.91;1087289;46;20019;-77
2022/02/07 03:01:43;;;;;;;3.95;0.80;;;;;;;4.31;68.57;99360.47;1087897;54;20026;-77
2022/02/07 03:02:47;;;;;;;5.47;1.27;;;;;;;4.34;68.04;99364.69;1087655;54;20042;-76
2022/02/07 03:03:49;;;;;;;4.93;1.23;;;;;;;4.36;67.96;99371.53;1086800;54;20154;-79
2022/02/07 03:04:53;;;;;;;4.57;1.10;;;;;;;4.43;67.69;99379.84;1085354;54;20596;-78
2022/02/07 03:05:54;;;;;;;3.13;0.82;;;;;;;4.39;67.80;99372.28;1085106;54;20057;-78
2022/02/07 03:06:58;;;;;;;3.95;1.40;;;;;;;4.36;67.67;99384.78;1085892;54;20714;-78
2022/02/07 03:08:03;;;;;;;2.85;0.90;;;;;;;4.35;67.83;99380.44;1086214;54;20654;-77
2022/02/07 03:09:13;;;;;;;3.95;0.70;;;;;;;4.41;67.77;99391.50;1086221;54;20034;-77
2022/02/07 03:10:24;;;;;;;4.60;0.82;;;;;;;4.41;67.73;99391.50;1088089;39;20601;-77
2022/02/07 03:11:28;;;;;;;;;;;;;;;4.29;68.03;99393.31;1086626;54;20045;-77
2022/02/07 03:12:32;;;;;;;5.53;0.80;;;;;;;4.33;67.90;99402.69;1086823;54;19957;-79
2022/02/07 03:13:50;;;;;;;2.10;0.50;;;;;;;4.35;68.02;99414.00;1086526;54;20729;-78
2022/02/07 03:14:52;;;;;;;3.13;0.70;;;;;;;4.30;67.84;99417.00;1086662;54;20034;-79
2022/02/07 03:17:13;;;;;;;5.68;0.77;;;;;;;4.26;68.34;99434.09;1086000;54;20181;-78
2022/02/07 03:18:15;;;;;;;3.90;0.80;;;;;;;4.28;67.96;99442.75;1089452;39;20540;-77
2022/02/07 03:19:20;;;;;;;3.67;0.98;;;;;;;4.29;68.49;99451.53;1086328;54;20575;-78
2022/02/07 03:20:22;;;;;;;3.15;0.65;;;;;;;4.12;69.22;99451.03;1086468;54;20039;-77
2022/02/07 03:21:26;;;;;;;3.40;0.90;;;;;;;4.05;69.78;99450.66;1086528;54;20054;-79
2022/02/07 03:22:36;;;;;;;3.75;0.68;;;;;;;3.99;70.32;99472.28;1086773;54;20038;-79
2022/02/07 03:23:41;;;;;;;2.88;0.77;;;;;;;4.03;70.53;99473.72;1086791;54;20094;-78
2022/02/07 03:24:45;;;;;;;2.50;0.70;;;;;;;4.01;70.47;99473.03;1086724;54;20042;-78
2022/02/07 03:25:46;;;;;;;2.10;0.60;;;;;;;3.95;71.19;99480.56;1086806;54;20540;-79
2022/02/07 03:26:50;;;;;;;2.13;0.57;;;;;;;4.01;71.12;99494.19;1086690;54;20060;-80
2022/02/07 03:27:52;;;;;;;3.83;0.80;;;;;;;3.94;71.58;99495.59;1087005;47;20023;-79
2022/02/07 03:28:56;;;;;;;4.88;0.93;;;;;;;3.89;71.17;99503.88;1086668;47;20635;-78
2022/02/07 03:29:58;;;;;;;3.40;0.70;;;;;;;3.99;70.97;99504.03;1086818;54;20042;-79
2022/02/07 03:31:02;;;;;;;3.60;0.65;;;;;;;3.89;71.54;99514.44;1086833;54;20030;-77
2022/02/07 03:32:05;;;;;;;2.58;0.60;;;;;;;3.93;71.33;99535.38;1089591;39;20523;-79
2022/02/07 03:33:10;;;;;;;3.80;0.70;;;;;;;3.99;71.04;99541.06;1086399;54;20042;-78
2022/02/07 03:34:11;;;;;;;3.42;0.73;;;;;;;4.00;71.26;99549.81;1086587;54;20042;-78
2022/02/07 03:35:18;;;;;;;2.20;0.70;;;;;;;4.05;71.29;99574.16;1086563;54;20615;-78
2022/02/07 03:36:20;;;;;;;2.85;0.85;;;;;;;4.09;71.46;99562.38;1087021;54;20039;-78
2022/02/07 03:37:24;;;;;;;2.80;0.60;;;;;;;4.12;71.30;99578.03;1086175;54;20045;-78
2022/02/07 03:38:25;;;;;;;3.88;0.60;;;;;;;4.13;71.19;99578.84;1086408;54;20038;-79
2022/02/07 03:39:32;;;;;;;2.50;0.50;;;;;;;4.05;71.55;99590.84;1086495;54;20045;-79
2022/02/07 03:40:34;;;;;;;1.92;0.50;;;;;;;3.99;71.96;99582.53;1087263;39;20562;-79
2022/02/07 03:41:39;;;;;;;1.83;0.50;;;;;;;3.92;72.40;99586.59;1086453;54;20599;-78
2022/02/07 03:42:40;;;;;;;2.28;0.40;;;;;;;3.95;71.94;99576.63;1086593;54;20073;-78
2022/02/07 03:43:44;;;;;;;2.50;0.50;;;;;;;3.84;72.22;99580.06;1086652;54;20038;-78
2022/02/07 03:44:46;;;;;;;2.47;0.52;;;;;;;3.88;72.14;99586.81;1086526;54;20035;-79
2022/02/07 03:45:50;;;;;;;1.45;0.60;;;;;;;3.79;72.31;99603.34;1088726;39;20839;-77
2022/02/07 03:46:51;;;;;;;1.80;0.38;;;;;;;3.64;73.07;99602.66;1086293;54;20587;-78
2022/02/07 03:47:56;;;;;;;1.23;0.30;;;;;;;3.62;73.21;99601.09;1086517;54;20043;-78
2022/02/07 03:48:57;;;;;;;2.63;0.47;;;;;;;3.51;73.38;99600.06;1086301;54;20615;-76
2022/02/07 03:50:01;;;;;;;1.13;0.30;;;;;;;3.41;74.13;99606.97;1086452;54;20046;-79
2022/02/07 03:51:03;;;;;;;1.02;0.40;;;;;;;3.30;74.32;99606.91;1086495;54;20034;-79
2022/02/07 03:52:09;;;;;;;1.00;0.40;;;;;;;3.39;74.32;99614.19;1086480;54;20642;-78
2022/02/07 03:53:10;;;;;;;2.10;0.40;;;;;;;3.21;74.74;99625.06;1087206;46;20034;-78
2022/02/07 03:54:14;;;;;;;2.15;0.57;;;;;;;3.32;74.21;99626.97;1085591;54;20544;-79
2022/02/07 03:55:19;;;;;;;1.17;0.60;;;;;;;3.25;74.71;99625.72;1087592;46;20041;-78
2022/02/07 03:56:23;;;;;;;1.27;0.45;;;;;;;3.14;75.15;99629.09;1086754;54;20046;-79
2022/02/07 03:57:24;;;;;;;2.55;0.45;;;;;;;3.19;75.15;99637.56;1086829;47;20046;-80
2022/02/07 03:58:29;;;;;;;1.75;0.32;;;;;;;3.23;75.07;99639.03;1086617;54;20054;-79
2022/02/07 03:59:30;;;;;;;2.20;0.77;;;;;;;3.31;75.16;99648.22;1087073;47;20039;-78
2022/02/07 04:00:36;;;;;;;1.33;0.30;;;;;;;3.22;75.14;99645.25;1086594;54;20804;-79
2022/02/07 04:01:38;;;;;;;0.77;0.32;;;;;;;3.38;75.06;99647.66;1087343;46;20031;-80
2022/02/07 04:02:44;;;;;;;0.95;0.30;;;;;;;3.34;74.91;99645.34;1087269;47;20035;-78
2022/02/07 04:03:46;;;;;;;1.67;0.40;;;;;;;3.32;75.21;99657.81;1087458;39;20828;-78
2022/02/07 04:04:56;;;;;;;1.23;0.40;;;;;;;3.32;75.27;99660.47;1087048;54;20038;-79
2022/02/07 04:06:00;;;;;;;1.98;0.50;;;;;;;3.40;75.36;99660.78;1086846;54;20065;-79
2022/02/07 04:07:06;;;;;;;2.35;0.52;;;;;;;3.34;75.11;99667.34;1086590;54;20789;-80
2022/02/07 04:08:09;;;;;;;1.83;0.50;;;;;;;3.18;75.68;99672.84;1086457;54;20053;-80
2022/02/07 04:09:18;;;;;;;1.80;0.50;;;;;;;3.20;75.82;99676.25;1086715;54;20069;-79
2022/02/07 04:10:23;;;;;;;2.92;0.57;;;;;;;3.11;76.42;99682.16;1087303;39;20758;-78
2022/02/07 04:11:32;;;;;;;1.42;0.38;;;;;;;3.14;76.21;99687.22;1086877;54;20690;-79
2022/02/07 04:12:34;;;;;;;3.47;0.60;;;;;;;3.13;76.17;99685.53;1087017;54;20076;-77
2022/02/07 04:13:41;;;;;;;1.73;0.52;;;;;;;3.24;75.99;99688.28;1086925;54;20486;-78
2022/02/07 04:14:43;;;;;;;6.00;0.65;;;;;;;3.12;76.24;99687.34;1086850;54;20054;-79
2022/02/07 04:15:47;;;;;;;2.13;0.60;;;;;;;3.09;76.11;99694.63;1086773;54;20580;-80
2022/02/07 04:16:51;;;;;;;2.08;0.60;;;;;;;3.07;76.17;99689.44;1087211;39;20543;-77
2022/02/07 04:17:57;;;;;;;1.60;0.50;;;;;;;3.09;76.17;99691.97;1086752;54;20649;-78
2022/02/07 04:19:07;;;;;;;1.75;0.45;;;;;;;3.09;76.06;99699.91;1086944;54;20042;-78
2022/02/07 04:20:10;;;;;;;1.85;0.50;;;;;;;3.13;76.09;99701.38;1086913;54;20038;-78
2022/02/07 04:21:14;;;;;;;1.65;0.50;;;;;;;3.28;75.49;99705.63;1087600;47;20041;-78
2022/02/07 04:22:15;;;;;;;2.55;0.52;;;;;;;3.24;75.92;99716.50;1087647;46;20041;-78
2022/02/07 04:23:19;;;;;;;1.85;0.45;;;;;;;3.25;75.54;99719.03;1088266;39;20478;-79
2022/02/07 04:24:24;;;;;;;1.05;0.35;;;;;;;3.33;75.22;99715.00;1087299;39;20473;-80
2022/02/07 04:25:28;;;;;;;1.27;0.40;;;;;;;3.21;75.19;99714.88;1086875;46;20041;-79
2022/02/07 04:26:32;;;;;;;1.33;0.60;;;;;;;3.23;75.04;99720.09;1086777;54;20061;-79
2022/02/07 04:27:34;;;;;;;2.33;0.65;;;;;;;3.30;75.17;99725.81;1086964;54;20065;-79
2022/02/07 04:28:38;;;;;;;2.60;0.65;;;;;;;3.27;75.05;99725.06;1087077;54;20737;-78
2022/02/07 04:29:42;;;;;;;1.35;0.45;;;;;;;3.43;74.83;99732.78;1087127;54;20069;-79
2022/02/07 04:30:44;;;;;;;1.85;0.60;;;;;;;3.27;74.58;99737.41;1086978;54;20073;-79
2022/02/07 04:31:50;;;;;;;4.25;0.80;;;;;;;3.20;74.76;99752.84;1087004;54;20037;-80
2022/02/07 04:32:52;;;;;;;2.00;0.88;;;;;;;3.30;74.47;99749.59;1086929;54;20038;-78
2022/02/07 04:33:56;;;;;;;1.77;0.50;;;;;;;3.36;74.36;99752.63;1087426;54;20043;-79
2022/02/07 04:34:58;;;;;;;2.35;0.57;;;;;;;3.26;74.53;99760.34;1087458;54;20038;-79
2022/02/07 04:36:03;;;;;;;2.60;0.55;;;;;;;3.21;74.15;99761.63;1087673;54;20038;-79
2022/02/07 04:37:07;;;;;;;3.08;0.70;;;;;;;3.14;74.66;99765.63;1085644;54;20046;-77
2022/02/07 04:38:09;;;;;;;3.60;0.90;;;;;;;3.27;74.18;99762.06;1086662;54;20038;-78
2022/02/07 04:39:19;;;;;;;2.33;0.70;;;;;;;3.37;74.02;99766.69;1086413;46;20042;-78
2022/02/07 04:40:22;;;;;;;4.63;1.00;;;;;;;3.17;74.01;99776.84;1086414;54;20043;-78
2022/02/07 04:41:29;;;;;;;2.03;0.57;;;;;;;3.08;74.25;99782.72;1086184;54;20038;-78
2022/02/07 04:42:30;;;;;;;2.70;0.70;;;;;;;3.12;74.09;99781.56;1086179;54;20049;-77
2022/02/07 04:43:35;;;;;;;3.95;0.90;;;;;;;3.14;73.89;99781.47;1087197;54;20104;-79
2022/02/07 04:44:44;;;;;;;2.83;0.75;;;;;;;3.07;74.32;99781.03;1088990;39;20269;-78
2022/02/07 04:46:01;;;;;;;3.40;0.70;;;;;;;3.05;74.12;99786.44;1088114;46;20111;-77
2022/02/07 04:47:12;;;;;;;3.17;0.80;;;;;;;3.01;74.06;99792.84;1085891;54;20066;-78
2022/02/07 04:50:00;;;;;;;6.35;1.10;;;;;;;3.02;73.97;99794.56;1085832;54;20042;-78
2022/02/07 04:51:36;;;;;;;4.03;1.20;;;;;;;2.96;74.53;99794.97;1085863;54;20046;-79
2022/02/07 04:53:08;;;;;;;3.55;0.95;;;;;;;2.85;74.44;99797.47;1085606;54;20114;-77
2022/02/07 04:55:40;;;;;;;2.33;0.80;;;;;;;2.85;74.89;99808.88;1084957;54;20072;-78
2022/02/07 04:58:08;;;;;;;4.35;0.80;;;;;;;3.04;74.46;99810.28;1085895;39;20422;-78
2022/02/07 04:59:13;;;;;;;3.35;0.88;;;;;;;3.03;74.22;99808.59;1085129;54;20038;-78
2022/02/07 05:00:34;;;;;;;3.72;0.85;;;;;;;2.96;74.67;99824.84;1084991;54;20038;-78
2022/02/07 05:01:46;;;;;;;;;;;;;;;3.08;74.50;99819.72;1085030;54;20057;-78
2022/02/07 05:02:59;;;;;;;4.07;1.58;;;;;;;3.20;73.78;99823.31;1085318;54;19953;-77
2022/02/07 05:04:09;;;;;;;2.95;1.20;;;;;;;3.19;73.91;99827.78;1085721;54;20061;-78
2022/02/07 05:05:23;;;;;;;3.78;0.93;;;;;;;3.21;73.74;99838.22;1085741;54;20026;-78
2022/02/07 05:14:09;;;;;;;4.97;1.40;;;;;;;3.23;74.05;99871.53;1085459;54;20038;-77
2022/02/07 05:15:11;;;;;;;4.20;1.20;;;;;;;3.32;74.26;99867.44;1085845;54;20031;-78
2022/02/07 05:16:21;;;;;;;4.25;1.10;;;;;;;3.11;74.43;99869.72;1086317;39;20486;-77
2022/02/07 05:17:27;;;;;;;3.72;0.77;;;;;;;3.07;74.73;99878.78;1087789;47;20041;-77
2022/02/07 05:18:30;;;;;;;3.40;0.90;;;;;;;3.19;74.45;99877.09;1088767;46;20039;-77
2022/02/07 05:19:34;;;;;;;4.25;0.90;;;;;;;3.12;74.58;99879.28;1087323;54;20034;-77
2022/02/07 05:20:36;;;;;;;3.65;1.05;;;;;;;2.94;75.22;99881.38;1087643;46;20043;-79
2022/02/07 05:21:41;;;;;;;2.65;0.80;;;;;;;3.09;75.01;99884.81;1085763;54;20039;-78
2022/02/07 05:22:42;;;;;;;6.05;1.23;;;;;;;3.06;74.94;99885.00;1085717;54;20042;-78
2022/02/07 05:23:46;;;;;;;4.00;1.02;;;;;;;3.11;74.74;99886.41;1085673;54;20039;-77
2022/02/07 05:24:50;;;;;;;3.15;0.98;;;;;;;3.05;74.93;99896.50;1085983;54;20043;-77
2022/02/07 05:25:52;;;;;;;3.40;1.05;;;;;;;2.91;75.19;99898.28;1086047;54;20042;-77
2022/02/07 05:26:56;;;;;;;2.72;0.93;;;;;;;2.91;75.57;99900.91;1085612;54;20041;-79
2022/02/07 05:28:03;;;;;;;3.38;1.08;;;;;;;2.99;75.47;99907.47;1085527;54;20030;-77
2022/02/07 05:29:06;;;;;;;3.55;0.80;;;;;;;3.08;75.07;99906.88;1086522;46;20057;-77
2022/02/07 05:30:10;;;;;;;5.93;1.20;;;;;;;2.97;75.13;99911.06;1085577;54;20038;-77
2022/02/07 05:31:12;;;;;;;2.53;0.82;;;;;;;2.88;75.27;99927.50;1085608;54;20065;-76
2022/02/07 05:32:17;;;;;;;3.85;1.00;;;;;;;2.92;75.07;99920.22;1086950;46;20026;-78
2022/02/07 05:33:18;;;;;;;5.30;0.98;;;;;;;2.88;75.12;99924.88;1085970;54;20066;-78
2022/02/07 05:34:22;;;;;;;3.67;0.90;;;;;;;2.85;75.12;99925.06;1085688;54;20578;-78
2022/02/07 05:35:24;;;;;;;3.88;1.05;;;;;;;2.81;74.97;99936.78;1085694;54;20026;-77
2022/02/07 05:36:28;;;;;;;5.53;0.90;;;;;;;2.86;75.15;99937.31;1086112;54;20026;-78
2022/02/07 05:37:31;;;;;;;4.82;1.08;;;;;;;2.90;74.63;99940.59;1085777;54;20595;-78
2022/02/07 05:38:38;;;;;;;4.57;1.05;;;;;;;2.74;74.69;99944.22;1086682;39;20445;-78
2022/02/07 05:39:41;;;;;;;3.03;0.75;;;;;;;2.77;74.82;99943.19;1085937;46;20070;-80
2022/02/07 05:40:53;;;;;;;4.97;1.00;;;;;;;2.80;74.46;99941.19;1085920;54;20069;-80
2022/02/07 05:41:55;;;;;;;4.38;0.95;;;;;;;2.70;74.75;99948.00;1085804;54;20031;-78
2022/02/07 05:42:59;;;;;;;5.93;1.10;;;;;;;2.71;74.76;99943.56;1085757;54;20611;-78
2022/02/07 05:44:04;;;;;;;6.57;1.30;;;;;;;2.75;74.45;99947.69;1086744;39;20446;-79
2022/02/07 05:45:09;;;;;;;4.28;1.17;;;;;;;2.73;74.42;99957.53;1085982;46;20032;-77
2022/02/07 05:46:11;;;;;;;4.22;1.00;;;;;;;2.82;74.22;99951.66;1085380;54;20038;-78
2022/02/07 05:47:16;;;;;;;5.28;1.23;;;;;;;2.83;74.11;99969.22;1085871;54;20065;-79
2022/02/07 05:48:17;;;;;;;3.90;0.95;;;;;;;2.99;74.05;99962.94;1086179;54;20043;-81
2022/02/07 05:49:24;;;;;;;5.50;1.02;;;;;;;3.02;73.33;99974.16;1086226;54;20098;-78
2022/02/07 05:50:25;;;;;;;6.00;1.30;;;;;;;3.07;73.56;99971.22;1086066;54;20043;-79
2022/02/07 05:51:29;;;;;;;4.85;1.00;;;;;;;3.01;73.33;99979.53;1086450;54;20031;-78
2022/02/07 05:52:31;;;;;;;4.43;1.00;;;;;;;3.14;73.27;99974.31;1086305;54;20065;-78
2022/02/07 05:53:35;;;;;;;5.35;1.23;;;;;;;2.89;73.25;99978.50;1086256;54;20134;-79
2022/02/07 05:54:39;;;;;;;6.30;1.52;;;;;;;2.91;73.63;99984.56;1086653;54;20042;-77
2022/02/07 05:55:41;;;;;;;6.00;1.23;;;;;;;2.93;73.53;99987.94;1086173;54;20038;-78
2022/02/07 05:56:45;;;;;;;6.53;1.13;;;;;;;3.06;73.09;99985.38;1086590;46;20602;-78
2022/02/07 05:57:46;;;;;;;4.75;1.20;;;;;;;3.04;73.17;99997.81;1086070;54;20541;-79
2022/02/07 05:58:51;;;;;;;4.13;0.98;;;;;;;2.93;73.16;99993.22;1086291;54;20042;-78
2022/02/07 05:59:55;;;;;;;3.65;0.90;;;;;;;2.89;73.05;99989.06;1086254;54;20054;-78
2022/02/07 06:00:59;;;;;;;6.25;1.13;;;;;;;3.07;73.04;99992.34;1086070;46;20034;-78
2022/02/07 06:02:01;;;;;;;3.35;1.00;;;;;;;3.18;72.75;99996.94;1087095;46;20034;-78
2022/02/07 06:03:05;;;;;;;3.90;0.98;;;;;;;3.23;72.48;100000.97;1085650;54;20045;-78
2022/02/07 06:04:07;;;;;;;3.53;1.10;;;;;;;3.17;72.68;99998.75;1086147;54;20053;-78
2022/02/07 06:05:12;;;;;;;4.43;1.15;;;;;;;3.31;72.38;100016.34;1086272;54;20041;-78
2022/02/07 06:06:16;;;;;;;3.75;1.00;;;;;;;3.29;72.30;100018.25;1086450;54;20042;-78
2022/02/07 06:07:18;;;;;;;7.57;1.50;;;;;;;3.19;72.41;100031.22;1085709;54;20073;-78
2022/02/07 06:08:22;;;;;;;7.57;1.50;;;;;;;3.28;72.05;100035.91;1086278;54;20077;-79
2022/02/07 06:09:24;;;;;;;5.60;1.00;;;;;;;3.35;71.97;100030.22;1086227;54;20081;-78
2022/02/07 06:10:28;;;;;;;2.88;0.85;;;;;;;3.35;71.79;100032.84;1086231;54;20038;-78
2022/02/07 06:11:32;;;;;;;6.97;2.03;;;;;;;3.36;72.02;100026.63;1086997;39;20667;-77
2022/02/07 06:12:37;;;;;;;6.80;1.45;;;;;;;3.23;72.04;100034.50;1086362;54;20042;-79
2022/02/07 06:13:41;;;;;;;7.93;1.40;;;;;;;3.26;71.84;100035.16;1086973;54;20037;-77
2022/02/07 06:14:43;;;;;;;6.85;1.45;;;;;;;3.33;71.80;100042.66;1086744;54;20667;-77
2022/02/07 06:15:50;;;;;;;8.02;2.05;;;;;;;3.26;71.62;100035.16;1086023;54;20061;-78
2022/02/07 06:16:54;;;;;;;6.55;1.63;;;;;;;3.26;71.73;100039.56;1085586;54;20573;-78